Time;durP1;ratioP1;P1;durP2;ratioP2;P2;SDS_P1;SDS_P2;PMS_P1;PMS_P2;Temp;Humidity;BMP_temperature;BMP_pressure;BME280_temperature;BME280_humidity;BME280_pressure;Samples;Min_cycle;Max_cycle;Signal;HPM_P1;HPM_P2
2022/03/21 00:02:19;;;;;;;18.60;7.60;;;5.20;91.50;;;;;;10078363;28;20046;-91
2022/03/21 00:07:24;;;;;;;20.08;7.97;;;5.20;91.10;;;;;;10293160;28;20057;-91
2022/03/21 00:12:25;;;;;;;18.77;8.88;;;5.20;90.40;;;;;;10295340;28;20054;-90
2022/03/21 00:17:28;;;;;;;19.40;8.48;;;5.10;92.70;;;;;;10307573;28;20046;-90
2022/03/21 00:22:30;;;;;;;18.58;7.70;;;5.00;93.60;;;;;;10280086;28;20066;-91
2022/03/21 00:27:33;;;;;;;17.73;7.60;;;4.90;93.70;;;;;;10304674;28;20100;-91
2022/03/21 00:32:37;;;;;;;24.42;9.55;;;4.90;94.20;;;;;;10304004;28;20051;-91
2022/03/21 00:37:45;;;;;;;17.67;7.55;;;4.80;94.80;;;;;;10293135;28;20049;-91
2022/03/21 00:42:49;;;;;;;21.60;8.02;;;4.70;96.40;;;;;;10309557;28;20038;-91
2022/03/21 00:47:56;;;;;;;17.27;7.07;;;4.60;97.20;;;;;;10295990;28;20370;-91
2022/03/21 00:52:58;;;;;;;16.65;8.20;;;4.50;99.10;;;;;;10305485;28;20051;-91
2022/03/21 00:58:00;;;;;;;23.27;8.02;;;4.40;99.60;;;;;;10296358;28;20064;-91
2022/03/21 01:03:04;;;;;;;15.90;7.28;;;4.30;99.90;;;;;;10287930;28;20077;-92
2022/03/21 01:08:08;;;;;;;18.90;7.35;;;4.30;99.90;;;;;;10124707;28;20042;-91
2022/03/21 01:13:18;;;;;;;19.42;7.50;;;4.20;99.90;;;;;;10114095;28;20043;-91
2022/03/21 01:18:21;;;;;;;20.35;7.78;;;4.10;99.90;;;;;;10278038;28;20101;-90
2022/03/21 01:23:23;;;;;;;18.45;7.70;;;4.00;99.90;;;;;;10285795;28;20051;-91
2022/03/21 01:28:25;;;;;;;16.25;6.88;;;4.00;99.90;;;;;;10267937;28;20047;-91
2022/03/21 01:33:30;;;;;;;21.42;7.43;;;3.90;99.90;;;;;;10288392;28;20057;-91
2022/03/21 01:38:33;;;;;;;19.67;7.63;;;3.80;99.90;;;;;;10283449;28;20059;-91
2022/03/21 01:44:01;;;;;;;18.52;7.03;;;3.70;99.90;;;;;;10294842;28;20046;-91
2022/03/21 01:49:04;;;;;;;;;;;3.70;99.90;;;;;;10283641;28;20074;-91
2022/03/21 01:59:27;;;;;;;18.27;7.28;;;3.60;99.90;;;;;;10292683;28;20061;-90
2022/03/21 02:04:29;;;;;;;20.65;6.32;;;3.60;99.90;;;;;;10298874;28;20049;-90
2022/03/21 02:09:31;;;;;;;16.10;6.30;;;3.50;99.90;;;;;;10297481;28;20532;-90
2022/03/21 02:14:39;;;;;;;24.02;6.70;;;3.50;99.90;;;;;;10316050;28;20050;-91
2022/03/21 02:19:45;;;;;;;12.63;6.57;;;3.40;99.90;;;;;;10301170;28;20066;-90
2022/03/21 02:24:46;;;;;;;15.15;6.63;;;3.50;99.90;;;;;;10268388;28;20061;-90
2022/03/21 02:29:49;;;;;;;14.20;6.35;;;3.40;99.90;;;;;;10315858;28;20056;-90
2022/03/21 02:34:53;;;;;;;14.07;6.40;;;3.40;99.90;;;;;;10294723;28;20096;-90
2022/03/21 02:39:58;;;;;;;17.02;6.18;;;3.40;99.90;;;;;;10288791;28;20050;-91
2022/03/21 02:45:00;;;;;;;15.82;6.18;;;3.30;99.80;;;;;;10300998;28;20054;-91
2022/03/21 02:50:03;;;;;;;13.50;5.80;;;3.30;99.50;;;;;;10305793;28;20129;-91
2022/03/21 02:55:05;;;;;;;16.75;6.95;;;3.20;99.40;;;;;;10301888;28;20050;-91
2022/03/21 03:00:08;;;;;;;12.25;5.47;;;3.30;99.70;;;;;;10304137;28;20412;-90
2022/03/21 03:05:10;;;;;;;15.18;6.07;;;3.20;99.90;;;;;;10321011;28;20046;-91
2022/03/21 03:10:12;;;;;;;12.38;5.93;;;3.20;99.90;;;;;;10298257;28;20046;-91
2022/03/21 03:15:26;;;;;;;13.52;5.70;;;3.10;99.90;;;;;;10295535;28;20118;-91
2022/03/21 03:20:28;;;;;;;12.00;6.00;;;3.10;99.90;;;;;;10297548;28;20471;-91
2022/03/21 03:25:30;;;;;;;14.38;6.30;;;3.00;99.90;;;;;;10301153;28;20054;-91
2022/03/21 03:30:34;;;;;;;13.68;6.20;;;2.90;99.90;;;;;;10299822;28;20130;-90
2022/03/21 03:35:36;;;;;;;13.75;5.32;;;2.90;99.90;;;;;;10307940;28;20096;-90
2022/03/21 03:40:38;;;;;;;18.40;6.18;;;2.90;99.90;;;;;;10316100;28;20408;-91
2022/03/21 03:45:40;;;;;;;16.17;5.78;;;2.90;99.10;;;;;;10324463;28;20062;-91
2022/03/21 03:50:42;;;;;;;11.48;4.88;;;2.90;98.50;;;;;;10297572;28;20145;-91
2022/03/21 03:55:44;;;;;;;15.05;5.78;;;2.90;97.70;;;;;;10319996;28;20057;-91
2022/03/21 04:00:46;;;;;;;21.00;6.68;;;2.90;96.70;;;;;;10306326;28;20050;-91
2022/03/21 04:05:50;;;;;;;36.78;13.55;;;2.90;97.80;;;;;;10301432;28;20125;-91
2022/03/21 04:10:52;;;;;;;17.27;6.53;;;2.90;97.50;;;;;;10326474;28;20061;-92
2022/03/21 04:15:54;;;;;;;17.65;6.45;;;2.90;95.80;;;;;;10314839;28;20050;-91
2022/03/21 04:20:56;;;;;;;13.75;6.05;;;2.90;96.30;;;;;;10315746;28;20488;-90
2022/03/21 04:25:59;;;;;;;18.33;6.38;;;2.80;96.40;;;;;;10300197;28;20058;-90
2022/03/21 04:31:01;;;;;;;15.43;5.78;;;2.80;97.00;;;;;;10318504;28;20149;-90
2022/03/21 04:36:03;;;;;;;12.02;4.97;;;2.80;95.50;;;;;;10294049;28;20055;-91
2022/03/21 04:41:06;;;;;;;15.25;5.95;;;2.80;95.80;;;;;;10292572;28;20445;-91
2022/03/21 04:46:13;;;;;;;16.65;6.05;;;2.70;98.50;;;;;;10161495;28;20524;-91
2022/03/21 04:51:39;;;;;;;15.32;6.07;;;2.70;98.40;;;;;;10138495;28;20070;-91
2022/03/21 04:56:41;;;;;;;15.68;5.82;;;2.60;98.90;;;;;;10323205;28;20129;-91
2022/03/21 05:01:43;;;;;;;17.35;5.50;;;2.60;99.90;;;;;;10299655;28;20123;-91
2022/03/21 05:06:48;;;;;;;18.50;6.35;;;2.50;99.90;;;;;;10301265;28;24901;-91
2022/03/21 05:11:52;;;;;;;17.55;6.10;;;2.40;99.90;;;;;;10283223;28;20049;-91
2022/03/21 05:16:57;;;;;;;13.10;5.90;;;2.40;99.90;;;;;;10285998;28;20077;-91
2022/03/21 05:21:59;;;;;;;11.98;5.57;;;2.40;99.90;;;;;;10301790;28;20062;-89
2022/03/21 05:32:22;;;;;;;16.38;5.30;;;2.30;99.90;;;;;;10299804;28;20082;-89
2022/03/21 05:37:24;;;;;;;14.85;5.90;;;2.30;99.90;;;;;;10316915;28;20074;-89
2022/03/21 05:42:26;;;;;;;17.95;6.07;;;2.30;99.90;;;;;;10319195;28;20049;-88
2022/03/21 05:47:27;;;;;;;14.40;5.43;;;2.30;99.90;;;;;;10276635;28;20086;-89
2022/03/21 05:52:31;;;;;;;19.13;6.25;;;2.40;99.90;;;;;;10321377;28;20058;-90
2022/03/21 05:57:33;;;;;;;16.35;5.55;;;2.40;99.90;;;;;;10305766;28;20046;-87
2022/03/21 06:02:34;;;;;;;16.55;6.03;;;2.40;99.90;;;;;;10308416;28;20050;-88
2022/03/21 06:07:37;;;;;;;18.00;6.05;;;2.50;99.90;;;;;;10316495;28;20069;-88
2022/03/21 06:12:40;;;;;;;12.25;5.68;;;2.50;99.90;;;;;;10314517;28;20138;-90
2022/03/21 06:17:47;;;;;;;16.13;6.63;;;2.60;99.30;;;;;;10286382;28;20149;-91
2022/03/21 06:23:01;;;;;;;17.00;6.55;;;2.70;98.80;;;;;;10222327;28;20088;-91
2022/03/21 06:28:03;;;;;;;13.55;5.28;;;2.80;97.00;;;;;;10271740;28;20046;-91
2022/03/21 06:33:05;;;;;;;13.00;5.05;;;2.90;96.50;;;;;;10303804;28;20162;-90
2022/03/21 06:38:07;;;;;;;13.18;5.15;;;3.10;94.80;;;;;;10310616;28;20062;-88
2022/03/21 06:43:13;;;;;;;12.32;5.10;;;3.20;94.20;;;;;;10283242;28;20083;-90
2022/03/21 06:48:19;;;;;;;12.90;5.50;;;3.30;92.80;;;;;;10282626;28;20155;-89
2022/03/21 06:53:24;;;;;;;10.52;4.88;;;3.50;92.40;;;;;;10265730;28;20069;-88
2022/03/21 06:58:27;;;;;;;11.70;5.40;;;3.70;91.00;;;;;;10091698;28;20078;-90
2022/03/21 07:03:32;;;;;;;11.90;5.20;;;3.90;90.90;;;;;;10144322;28;20047;-88
2022/03/21 07:08:35;;;;;;;12.90;6.05;;;4.10;91.00;;;;;;10097487;28;20035;-89
2022/03/21 07:13:40;;;;;;;12.27;5.47;;;4.30;90.90;;;;;;10154346;28;20046;-89
2022/03/21 07:18:57;;;;;;;10.85;5.47;;;4.60;88.90;;;;;;10067045;28;20140;-89
2022/03/21 07:24:00;;;;;;;15.30;5.45;;;4.80;86.20;;;;;;10211052;28;20088;-89
2022/03/21 07:29:04;;;;;;;10.20;5.55;;;5.10;80.40;;;;;;10303276;28;20064;-88
2022/03/21 07:34:07;;;;;;;14.25;6.18;;;5.40;76.00;;;;;;10311410;28;20057;-88
2022/03/21 07:39:09;;;;;;;20.38;6.88;;;5.60;75.10;;;;;;10291811;28;20054;-88
2022/03/21 07:44:11;;;;;;;11.32;5.40;;;5.80;74.30;;;;;;10293317;28;20051;-88
2022/03/21 07:49:14;;;;;;;12.27;5.25;;;6.00;70.80;;;;;;10292210;28;20051;-88
2022/03/21 07:54:15;;;;;;;11.43;4.95;;;6.20;69.90;;;;;;10308290;28;20062;-88
2022/03/21 07:59:17;;;;;;;16.23;5.90;;;6.40;66.90;;;;;;10312806;28;20042;-88
2022/03/21 08:04:19;;;;;;;12.98;5.90;;;6.60;66.00;;;;;;10280268;28;20497;-90
2022/03/21 08:09:21;;;;;;;9.20;5.15;;;6.80;62.00;;;;;;10302249;28;20428;-90
2022/03/21 08:14:23;;;;;;;16.08;6.13;;;7.00;62.50;;;;;;10291253;28;20054;-90
2022/03/21 08:19:26;;;;;;;13.50;5.53;;;7.20;62.20;;;;;;10288897;28;20047;-90
2022/03/21 08:24:31;;;;;;;13.30;5.97;;;7.40;62.10;;;;;;10284111;28;20740;-90
2022/03/21 08:29:33;;;;;;;13.82;6.47;;;7.60;61.40;;;;;;10306205;28;20047;-90
2022/03/21 08:34:35;;;;;;;12.82;6.55;;;7.70;61.30;;;;;;10295366;28;20047;-91
2022/03/21 08:39:37;;;;;;;12.75;6.13;;;7.80;61.10;;;;;;10287594;28;20056;-88
2022/03/21 08:44:39;;;;;;;17.88;6.50;;;8.10;61.80;;;;;;10293471;28;20062;-88
2022/03/21 08:49:41;;;;;;;11.57;6.00;;;8.30;60.60;;;;;;10312126;28;20077;-88
2022/03/21 08:54:43;;;;;;;10.20;5.50;;;8.50;60.60;;;;;;10305492;28;20085;-88
2022/03/21 08:59:47;;;;;;;10.40;6.13;;;8.70;59.90;;;;;;10305812;28;20053;-88
2022/03/21 09:04:49;;;;;;;17.65;6.78;;;8.60;58.00;;;;;;10282313;28;20119;-88
2022/03/21 09:09:51;;;;;;;13.35;5.95;;;8.70;58.90;;;;;;10288783;28;20058;-89
2022/03/21 09:14:53;;;;;;;12.45;5.97;;;8.90;60.10;;;;;;10306323;28;20149;-89
2022/03/21 09:19:54;;;;;;;12.43;6.68;;;9.10;57.80;;;;;;10322886;28;20082;-89
2022/03/21 09:24:57;;;;;;;13.65;6.88;;;9.00;57.40;;;;;;10300203;28;20043;-89
2022/03/21 09:29:58;;;;;;;11.13;6.03;;;9.20;58.60;;;;;;10305920;28;20081;-88
2022/03/21 09:35:01;;;;;;;13.07;6.15;;;9.40;58.80;;;;;;10311996;28;20077;-88
2022/03/21 09:40:03;;;;;;;14.23;6.40;;;9.60;58.20;;;;;;10301752;28;20050;-89
2022/03/21 09:45:10;;;;;;;10.82;6.25;;;9.60;56.80;;;;;;10301106;28;20050;-89
2022/03/21 09:50:13;;;;;;;12.33;6.37;;;9.90;57.30;;;;;;10332282;28;20063;-89
2022/03/21 09:55:15;;;;;;;15.43;6.60;;;10.10;56.90;;;;;;10291123;28;20050;-89
2022/03/21 10:00:17;;;;;;;14.88;6.93;;;10.20;56.10;;;;;;10296702;28;20057;-90
2022/03/21 10:05:42;;;;;;;13.00;6.90;;;10.50;56.00;;;;;;10316044;28;20078;-90
2022/03/21 10:11:03;;;;;;;15.02;6.63;;;10.80;56.00;;;;;;10323454;28;20066;-89
2022/03/21 10:16:14;;;;;;;16.80;6.47;;;11.10;54.70;;;;;;10301780;28;20046;-90
2022/03/21 10:21:16;;;;;;;16.73;7.75;;;11.60;52.60;;;;;;10303833;28;20047;-90
2022/03/21 10:26:30;;;;;;;17.02;6.85;;;12.20;52.20;;;;;;10300354;28;20054;-90
2022/03/21 10:31:52;;;;;;;12.68;6.82;;;13.30;49.40;;;;;;10302856;28;20137;-89
2022/03/21 10:37:07;;;;;;;11.55;6.68;;;14.50;48.10;;;;;;10306567;28;20058;-89
2022/03/21 10:42:10;;;;;;;12.80;7.22;;;15.80;45.50;;;;;;10323512;28;20050;-89
2022/03/21 10:47:15;;;;;;;13.73;7.43;;;16.40;42.20;;;;;;10290762;28;20126;-90
2022/03/21 10:52:21;;;;;;;15.93;8.60;;;17.10;41.40;;;;;;10290335;28;20069;-92
2022/03/21 10:58:09;;;;;;;13.52;7.68;;;17.40;41.50;;;;;;9906742;28;20051;-92
2022/03/21 11:04:02;;;;;;;11.60;7.60;;;18.00;41.60;;;;;;9989443;28;20118;-90
2022/03/21 11:09:43;;;;;;;15.00;8.93;;;18.20;39.50;;;;;;10015527;28;20100;-91
2022/03/21 11:15:07;;;;;;;14.60;7.88;;;19.30;48.10;;;;;;9907220;28;20407;-91
2022/03/21 11:20:49;;;;;;;13.70;7.88;;;20.10;38.00;;;;;;10049597;28;20049;-91
2022/03/21 11:27:15;;;;;;;15.18;8.05;;;20.40;36.10;;;;;;10011558;28;20054;-92
2022/03/21 11:33:08;;;;;;;13.20;8.23;;;21.20;35.80;;;;;;9989194;28;20043;-92
2022/03/21 11:39:33;;;;;;;12.90;8.32;;;22.60;39.50;;;;;;9884222;28;20052;-91
2022/03/21 11:45:20;;;;;;;13.02;7.93;;;;;;;;;;9972600;28;20090;-92
2022/03/21 11:50:39;;;;;;;15.43;8.05;;;23.20;32.00;;;;;;10013269;28;20429;-90
2022/03/21 11:55:44;;;;;;;15.60;8.20;;;24.00;33.30;;;;;;10251630;28;20129;-89
2022/03/21 12:01:07;;;;;;;16.48;8.63;;;24.40;31.00;;;;;;10313765;28;20137;-89
2022/03/21 12:06:31;;;;;;;14.20;8.52;;;23.50;30.10;;;;;;10281587;28;20618;-89
2022/03/21 12:11:39;;;;;;;14.10;7.85;;;24.10;31.30;;;;;;10296051;28;20047;-89
2022/03/21 12:16:41;;;;;;;11.35;8.52;;;24.80;31.20;;;;;;10317153;28;20073;-89
2022/03/21 12:21:44;;;;;;;14.15;9.10;;;24.00;30.00;;;;;;10295304;28;20050;-89
2022/03/21 12:26:54;;;;;;;12.60;9.13;;;23.50;37.80;;;;;;10271195;28;20060;-88
2022/03/21 12:32:26;;;;;;;13.43;8.88;;;24.20;40.90;;;;;;10286142;28;20105;-89
2022/03/21 12:37:36;;;;;;;12.70;8.55;;;24.30;42.10;;;;;;10251073;28;20062;-89
2022/03/21 12:42:46;;;;;;;16.48;9.52;;;23.90;41.50;;;;;;10309832;28;20042;-89
2022/03/21 12:47:49;;;;;;;14.23;8.85;;;;;;;;;;10312643;28;20065;-89
2022/03/21 12:53:09;;;;;;;14.02;9.32;;;25.70;29.30;;;;;;10302810;28;20089;-89
2022/03/21 12:58:15;;;;;;;16.08;8.98;;;25.40;30.00;;;;;;10309930;28;21024;-88
2022/03/21 13:03:17;;;;;;;14.20;8.98;;;25.60;29.30;;;;;;10300330;28;20047;-88
2022/03/21 13:14:01;;;;;;;13.85;8.98;;;25.80;29.80;;;;;;10303610;28;20058;-88
2022/03/21 13:19:03;;;;;;;15.73;8.70;;;26.50;29.70;;;;;;10306643;28;20077;-88
2022/03/21 13:24:08;;;;;;;;;;;26.90;29.40;;;;;;10294829;28;20116;-88
2022/03/21 13:29:15;;;;;;;13.02;7.82;;;27.70;28.90;;;;;;10267329;28;20399;-89
2022/03/21 13:34:17;;;;;;;15.65;8.48;;;26.00;28.30;;;;;;10304096;28;20046;-88
2022/03/21 13:39:24;;;;;;;11.90;7.60;;;26.70;28.60;;;;;;10300985;28;20050;-88
2022/03/21 13:44:30;;;;;;;18.05;7.93;;;25.80;29.80;;;;;;10281924;28;20065;-89
2022/03/21 13:50:06;;;;;;;15.63;8.13;;;25.20;30.00;;;;;;10289519;28;20121;-89
2022/03/21 13:55:10;;;;;;;14.07;7.55;;;24.50;30.70;;;;;;10291008;28;20315;-87
2022/03/21 14:00:13;;;;;;;13.52;8.55;;;24.10;31.30;;;;;;10280810;28;20481;-88
2022/03/21 14:05:20;;;;;;;17.92;8.10;;;23.00;32.80;;;;;;10288112;28;20062;-89
2022/03/21 14:10:26;;;;;;;11.52;6.50;;;23.50;31.20;;;;;;10295524;28;20065;-87
2022/03/21 14:15:28;;;;;;;16.58;9.63;;;23.30;31.90;;;;;;10304568;28;20056;-88
2022/03/21 14:20:34;;;;;;;17.13;7.32;;;22.80;32.70;;;;;;10285474;28;20069;-89
2022/03/21 14:30:57;;;;;;;15.02;7.55;;;22.10;33.50;;;;;;10296947;28;20059;-88
2022/03/21 14:35:59;;;;;;;12.02;7.07;;;21.90;35.20;;;;;;10283281;28;20058;-88
2022/03/21 14:41:02;;;;;;;16.42;7.65;;;21.70;34.50;;;;;;10308536;28;20476;-89
2022/03/21 14:46:05;;;;;;;16.55;8.15;;;21.40;34.50;;;;;;10277123;28;20042;-89
2022/03/21 14:51:07;;;;;;;12.18;7.25;;;20.90;34.80;;;;;;10311114;28;20054;-88
2022/03/21 14:56:09;;;;;;;18.50;8.02;;;20.40;36.50;;;;;;10250962;28;20051;-89
2022/03/21 15:01:15;;;;;;;17.55;8.70;;;19.80;37.30;;;;;;10270329;28;20054;-89
2022/03/21 15:06:17;;;;;;;;;;;19.70;37.40;;;;;;10303146;28;20113;-89
2022/03/21 15:11:19;;;;;;;15.48;7.03;;;19.50;36.90;;;;;;10285289;28;19921;-88
2022/03/21 15:16:21;;;;;;;15.45;6.50;;;19.40;37.40;;;;;;10291873;28;20057;-89
2022/03/21 15:21:23;;;;;;;14.07;6.30;;;19.40;37.10;;;;;;10273805;28;20105;-89
2022/03/21 15:26:25;;;;;;;13.48;6.75;;;19.20;38.20;;;;;;10270994;28;20057;-89
2022/03/21 15:31:27;;;;;;;12.77;7.30;;;19.10;37.90;;;;;;10294865;28;20088;-88
2022/03/21 15:42:03;;;;;;;13.98;7.22;;;18.80;39.20;;;;;;10296252;28;20046;-89
2022/03/21 15:47:11;;;;;;;14.30;6.88;;;18.70;38.20;;;;;;10315919;28;20050;-88
2022/03/21 15:52:16;;;;;;;16.45;7.13;;;18.60;38.90;;;;;;10311753;28;20073;-88
2022/03/21 15:57:18;;;;;;;11.70;5.97;;;18.30;39.50;;;;;;10314888;28;20085;-88
2022/03/21 16:02:20;;;;;;;14.68;6.82;;;18.20;40.00;;;;;;10315717;28;20044;-88
2022/03/21 16:07:23;;;;;;;15.90;6.90;;;18.10;40.00;;;;;;10295814;28;20054;-88
2022/03/21 16:12:25;;;;;;;13.05;6.53;;;17.80;42.30;;;;;;10337048;28;20563;-89
2022/03/21 16:17:27;;;;;;;13.23;6.60;;;17.70;42.60;;;;;;10317499;28;20109;-88
2022/03/21 16:22:29;;;;;;;14.32;6.53;;;17.50;43.50;;;;;;10281162;28;20105;-88
2022/03/21 16:27:31;;;;;;;18.85;7.55;;;17.30;45.30;;;;;;10200745;28;20062;-88
2022/03/21 16:32:35;;;;;;;20.40;7.90;;;17.10;46.10;;;;;;10263186;28;20055;-88
2022/03/21 16:37:37;;;;;;;17.55;9.27;;;16.90;46.80;;;;;;10300779;28;20035;-90
2022/03/21 16:42:39;;;;;;;22.00;8.68;;;16.70;47.30;;;;;;10285478;28;20062;-88
2022/03/21 16:47:42;;;;;;;12.15;6.47;;;16.50;49.00;;;;;;10293459;28;20058;-89
2022/03/21 16:52:44;;;;;;;11.93;6.63;;;16.20;47.70;;;;;;10320145;28;20074;-89
2022/03/21 16:57:55;;;;;;;15.98;6.13;;;16.10;46.50;;;;;;10283211;28;20054;-89
2022/03/21 17:03:06;;;;;;;22.02;6.47;;;15.90;47.90;;;;;;10254176;28;20054;-89
2022/03/21 17:08:10;;;;;;;18.90;7.18;;;15.60;47.70;;;;;;10296248;28;20084;-90
2022/03/21 17:13:22;;;;;;;14.38;6.88;;;15.40;47.40;;;;;;10167531;28;20118;-89
2022/03/21 17:23:45;;;;;;;17.52;7.25;;;14.80;48.90;;;;;;10307548;28;20054;-90
2022/03/21 17:29:09;;;;;;;20.00;7.45;;;14.70;49.50;;;;;;10177843;28;20576;-89
2022/03/21 17:34:13;;;;;;;16.60;6.80;;;14.40;50.90;;;;;;10251093;28;20043;-88
2022/03/21 17:39:17;;;;;;;19.75;8.38;;;14.10;53.50;;;;;;10287904;28;20058;-89
2022/03/21 17:44:24;;;;;;;;;;;13.80;56.00;;;;;;10237228;28;20162;-89
2022/03/21 17:49:57;;;;;;;20.08;8.75;;;13.60;58.40;;;;;;10239640;28;20686;-89
2022/03/21 17:55:02;;;;;;;18.63;7.90;;;13.30;61.70;;;;;;10299454;28;20128;-88
2022/03/21 18:00:07;;;;;;;16.00;8.38;;;13.00;62.30;;;;;;10310554;28;20050;-89
2022/03/21 18:05:09;;;;;;;15.75;8.38;;;12.70;62.50;;;;;;10279982;28;20544;-88
2022/03/21 18:10:13;;;;;;;18.27;8.70;;;12.40;63.50;;;;;;10305576;28;20552;-88
2022/03/21 18:15:15;;;;;;;20.25;7.22;;;12.20;65.40;;;;;;10276543;28;20061;-89
2022/03/21 18:20:18;;;;;;;20.23;8.57;;;11.90;67.00;;;;;;10298824;28;20387;-90
2022/03/21 18:25:20;;;;;;;20.98;9.02;;;11.70;67.50;;;;;;10290358;28;20038;-89
2022/03/21 18:30:22;;;;;;;20.83;8.00;;;11.50;68.90;;;;;;10272063;28;20047;-90
2022/03/21 18:35:28;;;;;;;20.77;6.60;;;11.30;70.10;;;;;;10295805;28;20054;-89
2022/03/21 18:40:30;;;;;;;23.02;8.65;;;11.10;69.60;;;;;;10307810;28;20072;-89
2022/03/21 18:45:38;;;;;;;22.02;8.55;;;10.90;70.20;;;;;;10305563;28;20488;-87
2022/03/21 18:50:40;;;;;;;;;;;10.70;71.40;;;;;;10294882;28;20130;-88
2022/03/21 18:55:42;;;;;;;20.23;8.15;;;10.50;72.10;;;;;;10313974;28;19931;-89
2022/03/21 19:00:44;;;;;;;23.48;9.10;;;10.30;72.40;;;;;;10308724;28;20041;-89
2022/03/21 19:05:58;;;;;;;27.65;8.85;;;10.20;72.90;;;;;;10287656;28;20054;-89
2022/03/21 19:11:00;;;;;;;20.38;9.13;;;10.00;70.50;;;;;;10308453;28;20050;-89
2022/03/21 19:16:05;;;;;;;18.10;8.23;;;9.90;70.90;;;;;;10316602;28;20059;-87
2022/03/21 19:21:12;;;;;;;25.15;10.55;;;9.80;70.50;;;;;;10305056;28;20070;-88
2022/03/21 19:26:15;;;;;;;25.50;9.95;;;9.60;71.20;;;;;;10315190;28;20050;-88
2022/03/21 19:31:17;;;;;;;19.38;9.75;;;9.50;71.20;;;;;;10301808;28;20141;-88
2022/03/21 19:36:19;;;;;;;24.23;9.15;;;9.40;73.60;;;;;;10295485;28;20050;-88
2022/03/21 19:41:38;;;;;;;21.52;8.75;;;9.30;75.20;;;;;;10311391;28;20034;-89
2022/03/21 19:46:53;;;;;;;25.63;9.80;;;9.10;78.20;;;;;;10295387;28;20148;-90
2022/03/21 19:51:55;;;;;;;21.70;9.65;;;8.90;79.00;;;;;;10294777;28;20101;-88
2022/03/21 19:56:57;;;;;;;16.67;7.70;;;8.80;79.40;;;;;;10293461;28;21205;-88
2022/03/21 20:01:59;;;;;;;20.48;9.05;;;8.70;78.90;;;;;;10293581;28;20050;-87
2022/03/21 20:07:01;;;;;;;18.85;9.10;;;8.60;79.80;;;;;;10315703;28;20061;-89
2022/03/21 20:12:03;;;;;;;21.58;7.15;;;8.50;79.80;;;;;;10299388;28;20060;-89
2022/03/21 20:17:05;;;;;;;19.05;8.57;;;8.40;79.90;;;;;;10297071;28;20047;-89
2022/03/21 20:22:09;;;;;;;22.15;7.85;;;8.30;79.60;;;;;;10300521;28;20061;-89
2022/03/21 20:27:11;;;;;;;17.85;8.88;;;8.20;79.30;;;;;;10291711;28;20082;-88
2022/03/21 20:32:15;;;;;;;16.88;8.40;;;8.10;79.70;;;;;;10293268;28;20047;-89
2022/03/21 20:37:17;;;;;;;16.17;8.20;;;8.00;80.50;;;;;;10299242;28;20046;-90
2022/03/21 20:42:20;;;;;;;16.85;7.50;;;7.90;80.50;;;;;;10307169;28;20062;-88
2022/03/21 20:47:22;;;;;;;11.43;6.80;;;7.80;80.80;;;;;;10275207;28;20045;-88
2022/03/21 20:52:29;;;;;;;19.63;8.15;;;7.70;81.80;;;;;;10275783;28;20068;-89
2022/03/21 20:57:33;;;;;;;16.30;7.17;;;7.60;82.30;;;;;;10272312;28;20058;-88
2022/03/21 21:02:35;;;;;;;15.90;8.00;;;7.50;82.80;;;;;;10284762;28;20054;-89
2022/03/21 21:07:38;;;;;;;12.52;6.93;;;7.40;82.60;;;;;;10294558;28;20058;-89
2022/03/21 21:12:40;;;;;;;16.52;7.82;;;7.30;83.20;;;;;;10302852;28;20038;-89
2022/03/21 21:17:42;;;;;;;21.63;8.38;;;7.30;84.00;;;;;;10316743;28;20058;-88
2022/03/21 21:22:46;;;;;;;15.95;8.57;;;7.20;84.10;;;;;;10290825;28;20050;-90
2022/03/21 21:27:48;;;;;;;20.75;7.28;;;7.10;84.30;;;;;;10287159;28;20153;-88
2022/03/21 21:32:50;;;;;;;16.05;7.18;;;7.00;84.90;;;;;;10309930;28;20078;-89
2022/03/21 21:37:53;;;;;;;18.10;7.38;;;6.90;84.90;;;;;;10274646;28;20051;-88
2022/03/21 21:49:22;;;;;;;19.98;7.15;;;6.80;84.00;;;;;;10294833;28;20043;-88
2022/03/21 21:54:24;;;;;;;14.15;7.03;;;6.70;83.30;;;;;;10261601;28;20047;-88
2022/03/21 21:59:30;;;;;;;13.48;6.25;;;6.60;83.80;;;;;;10297101;28;20145;-88
2022/03/21 22:04:33;;;;;;;16.05;6.40;;;6.60;84.90;;;;;;10285281;28;20070;-88
2022/03/21 22:09:35;;;;;;;12.40;6.55;;;6.50;85.10;;;;;;10291651;28;20167;-87
2022/03/21 22:14:37;;;;;;;14.68;6.63;;;6.40;85.20;;;;;;10292409;28;20054;-88
2022/03/21 22:19:39;;;;;;;12.82;6.03;;;6.30;85.50;;;;;;10298837;28;20050;-88
2022/03/21 22:24:42;;;;;;;15.85;6.50;;;6.30;86.40;;;;;;10320537;28;20050;-88
2022/03/21 22:29:46;;;;;;;17.65;6.32;;;6.20;87.40;;;;;;10302662;28;20050;-87
2022/03/21 22:34:53;;;;;;;14.70;6.32;;;6.10;87.00;;;;;;10297655;28;20153;-88
2022/03/21 22:50:36;;;;;;;17.45;7.18;;;5.90;86.00;;;;;;10294690;28;20112;-88
2022/03/21 22:55:43;;;;;;;14.88;6.18;;;5.80;86.40;;;;;;10295753;28;20076;-88
2022/03/21 23:00:45;;;;;;;20.95;8.52;;;5.70;88.10;;;;;;10308731;28;20377;-88
2022/03/21 23:05:46;;;;;;;21.40;9.10;;;5.60;90.80;;;;;;10294216;28;20053;-88
2022/03/21 23:10:55;;;;;;;28.52;10.40;;;5.50;92.20;;;;;;10308374;28;20061;-87
2022/03/21 23:15:58;;;;;;;31.75;11.50;;;5.40;94.00;;;;;;10312534;28;20053;-88
2022/03/21 23:21:00;;;;;;;25.58;8.90;;;5.30;95.10;;;;;;10326780;28;20061;-88
2022/03/21 23:26:02;;;;;;;21.83;9.15;;;5.20;95.80;;;;;;10285970;28;20061;-87
2022/03/21 23:31:04;;;;;;;19.30;8.40;;;5.10;97.00;;;;;;10268765;28;20043;-87
2022/03/21 23:36:10;;;;;;;16.67;6.97;;;4.90;97.10;;;;;;10272294;28;20054;-89
2022/03/21 23:47:09;;;;;;;17.38;6.82;;;4.80;97.70;;;;;;10260473;28;20288;-88
2022/03/21 23:52:11;;;;;;;16.35;6.68;;;4.60;99.80;;;;;;10299671;28;20100;-87
2022/03/21 23:57:13;;;;;;;21.75;7.90;;;4.60;99.90;;;;;;10293262;28;20053;-88
